Time;durP1;ratioP1;P1;durP2;ratioP2;P2;SDS_P1;SDS_P2;PMS_P1;PMS_P2;Temp;Humidity;BMP_temperature;BMP_pressure;BME280_temperature;BME280_humidity;BME280_pressure;Samples;Min_cycle;Max_cycle;Signal;HPM_P1;HPM_P2
2023/08/20 00:01:34;;;;;;;13.48;7.28;;;;;;;;;;4957729;28;20604;-53
2023/08/20 00:04:02;;;;;;;11.57;7.78;;;;;;;;;;4957804;28;20290;-53
2023/08/20 00:06:30;;;;;;;11.13;7.07;;;;;;;;;;4956393;29;20642;-54
2023/08/20 00:08:56;;;;;;;12.57;7.45;;;;;;;;;;4957766;28;20238;-55
2023/08/20 00:11:24;;;;;;;10.20;7.38;;;;;;;;;;4957717;28;20210;-50
2023/08/20 00:13:51;;;;;;;10.23;7.35;;;;;;;;;;4957621;28;20290;-58
2023/08/20 00:16:18;;;;;;;13.43;7.88;;;;;;;;;;4957375;28;20207;-56
2023/08/20 00:18:46;;;;;;;9.77;7.72;;;;;;;;;;4957326;28;20226;-51
2023/08/20 00:21:14;;;;;;;11.13;7.22;;;;;;;;;;4957339;28;20675;-54
2023/08/20 00:23:41;;;;;;;12.25;7.63;;;;;;;;;;4957206;28;20572;-50
2023/08/20 00:26:09;;;;;;;10.35;7.38;;;;;;;;;;4957438;28;20574;-51
2023/08/20 00:28:38;;;;;;;10.38;7.20;;;;;;;;;;4957401;28;20571;-55
2023/08/20 00:31:06;;;;;;;9.88;7.22;;;;;;;;;;4972063;28;20214;-50
2023/08/20 00:33:33;;;;;;;11.13;6.90;;;;;;;;;;4957110;28;20203;-52
2023/08/20 00:36:00;;;;;;;8.48;7.00;;;;;;;;;;4955853;29;20576;-50
2023/08/20 00:38:27;;;;;;;10.95;7.00;;;;;;;;;;4955706;28;20318;-50
2023/08/20 00:40:55;;;;;;;11.00;7.68;;;;;;;;;;4956889;28;20565;-52
2023/08/20 00:43:22;;;;;;;9.63;6.45;;;;;;;;;;4972085;28;20258;-50
2023/08/20 00:45:49;;;;;;;11.73;7.22;;;;;;;;;;4956732;28;20615;-53
2023/08/20 00:48:17;;;;;;;9.10;6.97;;;;;;;;;;4955965;28;20207;-50
2023/08/20 00:50:44;;;;;;;10.35;7.68;;;;;;;;;;4957037;28;20212;-51
2023/08/20 00:53:13;;;;;;;11.07;8.48;;;;;;;;;;4955602;29;20584;-48
2023/08/20 00:55:43;;;;;;;14.85;8.35;;;;;;;;;;4955690;28;20211;-53
2023/08/20 00:58:10;;;;;;;16.90;8.10;;;;;;;;;;4956947;28;20619;-54
2023/08/20 01:00:37;;;;;;;12.55;8.38;;;;;;;;;;4955447;29;20702;-52
2023/08/20 01:03:05;;;;;;;10.88;8.98;;;;;;;;;;4956521;28;20223;-50
2023/08/20 01:05:36;;;;;;;11.05;7.80;;;;;;;;;;4956756;28;20227;-51
2023/08/20 01:08:38;;;;;;;14.05;7.47;;;;;;;;;;4939701;29;20310;-53
2023/08/20 01:11:12;;;;;;;11.15;7.40;;;;;;;;;;4942875;29;20207;-51
2023/08/20 01:13:39;;;;;;;14.77;7.45;;;;;;;;;;4939736;29;20214;-53
2023/08/20 01:16:07;;;;;;;15.65;7.93;;;;;;;;;;4956246;28;20207;-54
2023/08/20 01:18:34;;;;;;;14.45;8.93;;;;;;;;;;4956574;29;20214;-53
2023/08/20 01:21:06;;;;;;;11.52;8.48;;;;;;;;;;4956492;28;20668;-54
2023/08/20 01:23:56;;;;;;;10.07;8.43;;;;;;;;;;4955093;29;20262;-51
2023/08/20 01:26:39;;;;;;;12.45;7.95;;;;;;;;;;4955515;28;20236;-55
2023/08/20 01:29:07;;;;;;;12.55;8.35;;;;;;;;;;4956053;28;20719;-53
2023/08/20 01:31:34;;;;;;;17.90;9.25;;;;;;;;;;4956076;28;20282;-55
2023/08/20 01:34:02;;;;;;;15.35;8.80;;;;;;;;;;4954463;28;20207;-52
2023/08/20 01:36:29;;;;;;;12.25;8.65;;;;;;;;;;4954817;29;20208;-53
2023/08/20 01:38:56;;;;;;;11.90;9.00;;;;;;;;;;4956391;28;20265;-51
2023/08/20 01:41:23;;;;;;;10.90;9.20;;;;;;;;;;4955094;29;20199;-52
2023/08/20 01:43:51;;;;;;;12.02;9.10;;;;;;;;;;4955716;28;20691;-56
2023/08/20 01:46:18;;;;;;;12.63;8.88;;;;;;;;;;4954989;29;20250;-53
2023/08/20 01:48:45;;;;;;;11.25;8.65;;;;;;;;;;4955991;28;20211;-53
2023/08/20 01:51:13;;;;;;;14.45;9.13;;;;;;;;;;4955831;28;20211;-51
2023/08/20 01:53:40;;;;;;;13.07;9.18;;;;;;;;;;4955887;28;20200;-52
2023/08/20 01:56:12;;;;;;;10.82;9.32;;;;;;;;;;4970489;28;20199;-52
2023/08/20 01:58:39;;;;;;;12.93;10.20;;;;;;;;;;4954664;29;20210;-52
2023/08/20 02:01:07;;;;;;;14.38;9.07;;;;;;;;;;4955533;28;20734;-55
2023/08/20 02:03:36;;;;;;;13.25;9.25;;;;;;;;;;4956014;28;20207;-54
2023/08/20 02:06:04;;;;;;;11.32;9.07;;;;;;;;;;4954395;29;20226;-56
2023/08/20 02:08:31;;;;;;;14.00;9.30;;;;;;;;;;4955791;28;20234;-56
2023/08/20 02:11:03;;;;;;;9.75;8.00;;;;;;;;;;4955437;28;20203;-56
2023/08/20 02:13:31;;;;;;;13.93;9.13;;;;;;;;;;4955706;28;20559;-54
2023/08/20 02:16:00;;;;;;;11.27;9.05;;;;;;;;;;4954494;29;20208;-57
2023/08/20 02:18:28;;;;;;;13.55;8.50;;;;;;;;;;4954450;29;20207;-53
2023/08/20 02:20:55;;;;;;;17.17;9.40;;;;;;;;;;4955214;28;20211;-53
2023/08/20 02:23:22;;;;;;;13.20;8.88;;;;;;;;;;4954300;29;20230;-54
2023/08/20 02:25:51;;;;;;;13.85;8.77;;;;;;;;;;4954529;29;20207;-54
2023/08/20 02:28:20;;;;;;;9.93;7.97;;;;;;;;;;4955666;28;20322;-56
2023/08/20 02:30:48;;;;;;;12.27;8.50;;;;;;;;;;4955556;28;20216;-53
2023/08/20 02:33:15;;;;;;;9.15;7.55;;;;;;;;;;4955754;28;20208;-57
2023/08/20 02:35:42;;;;;;;11.15;8.23;;;;;;;;;;4955457;28;20215;-58
2023/08/20 02:38:09;;;;;;;9.30;7.90;;;;;;;;;;4955178;28;20243;-52
2023/08/20 02:40:41;;;;;;;11.65;7.75;;;;;;;;;;4955156;28;20203;-51
2023/08/20 02:43:08;;;;;;;12.63;8.35;;;;;;;;;;4955207;28;20742;-53
2023/08/20 02:45:41;;;;;;;13.40;7.63;;;;;;;;;;4954457;28;20207;-50
2023/08/20 02:48:10;;;;;;;10.27;7.30;;;;;;;;;;4957272;29;20700;-53
2023/08/20 02:50:37;;;;;;;14.85;7.55;;;;;;;;;;4957680;29;20211;-50
2023/08/20 02:53:05;;;;;;;12.50;7.85;;;;;;;;;;4957823;29;20333;-50
2023/08/20 02:55:33;;;;;;;8.57;6.80;;;;;;;;;;4958560;28;20261;-51
2023/08/20 02:58:00;;;;;;;9.00;7.25;;;;;;;;;;4958588;29;20206;-51
2023/08/20 03:00:27;;;;;;;12.25;7.57;;;;;;;;;;4958651;28;20211;-52
2023/08/20 03:02:56;;;;;;;9.02;7.05;;;;;;;;;;4941700;29;20214;-51
2023/08/20 03:05:23;;;;;;;9.35;7.15;;;;;;;;;;4957306;29;20208;-53
2023/08/20 03:07:50;;;;;;;11.13;7.85;;;;;;;;;;4958353;28;20251;-51
2023/08/20 03:10:17;;;;;;;15.75;7.38;;;;;;;;;;4958666;28;20207;-54
2023/08/20 03:12:44;;;;;;;9.38;7.20;;;;;;;;;;4958508;28;20238;-51
2023/08/20 03:15:11;;;;;;;11.32;7.15;;;;;;;;;;4957068;28;20573;-53
2023/08/20 03:17:39;;;;;;;8.65;5.97;;;;;;;;;;4958359;28;20645;-52
2023/08/20 03:20:07;;;;;;;11.10;6.80;;;;;;;;;;4958207;28;20200;-52
2023/08/20 03:22:37;;;;;;;11.48;8.18;;;;;;;;;;4958478;28;20211;-56
2023/08/20 03:25:05;;;;;;;14.10;6.22;;;;;;;;;;4957151;29;20207;-53
2023/08/20 03:27:32;;;;;;;8.88;6.45;;;;;;;;;;4958146;28;20219;-52
2023/08/20 03:30:02;;;;;;;10.27;7.22;;;;;;;;;;4956886;28;20235;-54
2023/08/20 03:32:30;;;;;;;12.95;7.60;;;;;;;;;;4956775;29;20209;-54
2023/08/20 03:34:59;;;;;;;8.68;7.18;;;;;;;;;;4957042;29;20259;-51
2023/08/20 03:37:26;;;;;;;10.93;7.15;;;;;;;;;;4957945;28;20327;-52
2023/08/20 03:39:53;;;;;;;12.73;7.30;;;;;;;;;;4956852;29;20211;-54
2023/08/20 03:42:20;;;;;;;9.00;7.50;;;;;;;;;;4957904;28;20612;-55
2023/08/20 03:44:48;;;;;;;8.88;6.47;;;;;;;;;;4972669;28;20262;-51
2023/08/20 03:47:19;;;;;;;8.35;6.55;;;;;;;;;;4972626;28;20234;-53
2023/08/20 03:49:48;;;;;;;12.88;5.60;;;;;;;;;;4957594;29;20204;-51
2023/08/20 03:52:15;;;;;;;11.27;6.40;;;;;;;;;;4957638;28;20238;-51
2023/08/20 03:54:42;;;;;;;10.88;6.68;;;;;;;;;;4957917;28;20282;-50
2023/08/20 03:57:09;;;;;;;7.60;4.70;;;;;;;;;;4957471;28;20207;-54
2023/08/20 03:59:37;;;;;;;13.90;8.27;;;;;;;;;;4969027;28;20207;-54
2023/08/20 04:02:04;;;;;;;11.98;8.10;;;;;;;;;;4957266;28;20222;-52
2023/08/20 04:04:31;;;;;;;11.13;7.95;;;;;;;;;;4955289;29;20222;-52
2023/08/20 04:06:58;;;;;;;13.18;8.32;;;;;;;;;;4955461;29;20203;-56
2023/08/20 04:09:25;;;;;;;12.40;8.18;;;;;;;;;;4988350;28;20266;-53
2023/08/20 04:11:52;;;;;;;11.52;8.27;;;;;;;;;;4957299;28;20541;-58
2023/08/20 04:14:20;;;;;;;15.07;8.73;;;;;;;;;;4955511;29;20609;-54
2023/08/20 04:16:47;;;;;;;11.30;9.07;;;;;;;;;;4957249;28;20191;-51
2023/08/20 04:19:14;;;;;;;10.88;8.98;;;;;;;;;;4955787;29;20199;-56
2023/08/20 04:21:42;;;;;;;11.10;8.20;;;;;;;;;;4955761;29;20199;-50
2023/08/20 04:24:09;;;;;;;16.20;8.93;;;;;;;;;;4955762;29;20242;-50
2023/08/20 04:26:36;;;;;;;11.88;9.80;;;;;;;;;;4971770;28;20251;-52
2023/08/20 04:29:03;;;;;;;13.77;9.73;;;;;;;;;;4956814;28;20231;-52
2023/08/20 04:31:30;;;;;;;12.65;10.30;;;;;;;;;;4956672;28;20195;-58
2023/08/20 04:34:03;;;;;;;13.43;9.18;;;;;;;;;;4969660;28;20266;-51
2023/08/20 04:36:51;;;;;;;16.15;11.15;;;;;;;;;;4954568;29;20188;-54
2023/08/20 04:39:20;;;;;;;11.80;10.07;;;;;;;;;;4952960;29;20247;-56
2023/08/20 04:41:50;;;;;;;12.88;10.55;;;;;;;;;;4955339;29;20290;-55
2023/08/20 04:44:19;;;;;;;14.40;10.93;;;;;;;;;;4953030;29;20207;-50
2023/08/20 04:46:47;;;;;;;15.68;11.27;;;;;;;;;;4955534;29;20286;-53
2023/08/20 04:49:14;;;;;;;15.00;10.32;;;;;;;;;;4955019;29;20223;-54
2023/08/20 04:51:41;;;;;;;16.20;11.07;;;;;;;;;;4955452;28;20205;-50
2023/08/20 04:54:09;;;;;;;14.77;11.55;;;;;;;;;;4956145;29;20660;-53
2023/08/20 04:56:36;;;;;;;17.42;11.68;;;;;;;;;;4954970;29;20604;-56
2023/08/20 04:59:03;;;;;;;15.73;10.65;;;;;;;;;;4987401;28;20199;-57
2023/08/20 05:01:49;;;;;;;13.90;10.77;;;;;;;;;;4954876;29;20554;-57
2023/08/20 05:04:20;;;;;;;14.10;10.95;;;;;;;;;;4952391;29;20596;-55
2023/08/20 05:06:47;;;;;;;13.85;10.55;;;;;;;;;;4955164;29;20282;-54
2023/08/20 05:09:16;;;;;;;16.77;11.02;;;;;;;;;;4953807;28;20715;-56
2023/08/20 05:11:43;;;;;;;12.27;10.18;;;;;;;;;;4956027;29;20195;-50
2023/08/20 05:14:10;;;;;;;11.73;9.55;;;;;;;;;;4943563;29;20219;-51
2023/08/20 05:16:37;;;;;;;13.50;10.15;;;;;;;;;;4951935;29;20700;-49
2023/08/20 05:19:05;;;;;;;11.93;9.85;;;;;;;;;;4936990;29;20223;-51
2023/08/20 05:21:32;;;;;;;15.40;9.75;;;;;;;;;;4968086;28;20204;-57
2023/08/20 05:24:00;;;;;;;17.80;9.55;;;;;;;;;;4951340;28;20258;-50
2023/08/20 05:26:27;;;;;;;11.15;9.60;;;;;;;;;;4954598;28;20208;-57
2023/08/20 05:28:54;;;;;;;12.18;9.52;;;;;;;;;;4954595;29;20591;-50
2023/08/20 05:31:21;;;;;;;11.48;9.30;;;;;;;;;;4986785;28;20529;-49
2023/08/20 05:33:49;;;;;;;12.90;9.77;;;;;;;;;;4943615;28;20577;-53
2023/08/20 05:36:17;;;;;;;11.98;9.18;;;;;;;;;;4954387;28;20239;-50
2023/08/20 05:38:46;;;;;;;14.45;9.82;;;;;;;;;;4947430;28;20307;-50
2023/08/20 05:41:13;;;;;;;12.05;9.20;;;;;;;;;;4984713;28;20235;-56
2023/08/20 05:43:41;;;;;;;14.68;8.38;;;;;;;;;;4986127;28;20282;-50
2023/08/20 05:46:07;;;;;;;14.93;8.88;;;;;;;;;;4955027;28;20255;-49
2023/08/20 05:48:35;;;;;;;13.30;8.32;;;;;;;;;;4953576;29;20290;-51
2023/08/20 05:51:02;;;;;;;11.18;9.30;;;;;;;;;;4954025;29;20227;-49
2023/08/20 05:53:30;;;;;;;12.88;8.60;;;;;;;;;;4953878;28;20223;-50
2023/08/20 05:55:57;;;;;;;14.40;8.93;;;;;;;;;;4954871;29;20227;-48
2023/08/20 05:58:26;;;;;;;10.75;8.77;;;;;;;;;;4969989;28;20227;-51
2023/08/20 06:00:53;;;;;;;13.98;9.15;;;;;;;;;;4970047;28;20231;-50
2023/08/20 06:03:20;;;;;;;14.90;8.75;;;;;;;;;;4953165;28;20227;-48
2023/08/20 06:05:47;;;;;;;11.88;8.93;;;;;;;;;;4955148;29;20227;-49
2023/08/20 06:08:14;;;;;;;11.35;8.88;;;;;;;;;;4954728;29;20290;-48
2023/08/20 06:10:41;;;;;;;10.63;8.68;;;;;;;;;;4954849;28;20231;-49
2023/08/20 06:13:09;;;;;;;11.07;8.85;;;;;;;;;;4947887;29;20231;-49
2023/08/20 06:15:36;;;;;;;12.20;8.45;;;;;;;;;;4935936;28;20224;-52
2023/08/20 06:18:03;;;;;;;10.73;8.05;;;;;;;;;;4945293;29;20235;-49
2023/08/20 06:20:30;;;;;;;14.18;8.35;;;;;;;;;;4954533;28;20251;-48
2023/08/20 06:22:58;;;;;;;10.52;8.38;;;;;;;;;;4931752;29;20232;-49
2023/08/20 06:25:25;;;;;;;12.80;8.55;;;;;;;;;;4935730;28;20228;-49
2023/08/20 06:27:52;;;;;;;11.10;7.93;;;;;;;;;;4949132;29;20241;-49
2023/08/20 06:30:19;;;;;;;11.20;8.13;;;;;;;;;;4954665;28;20327;-49
2023/08/20 06:32:46;;;;;;;11.82;8.20;;;;;;;;;;4954364;29;20278;-49
2023/08/20 06:35:14;;;;;;;12.55;8.63;;;;;;;;;;4953102;29;20315;-47
2023/08/20 06:37:41;;;;;;;13.60;8.75;;;;;;;;;;4953280;28;20258;-48
2023/08/20 06:40:09;;;;;;;17.55;8.25;;;;;;;;;;4945967;28;20619;-51
2023/08/20 06:42:36;;;;;;;9.95;7.68;;;;;;;;;;4934276;29;21131;-55
2023/08/20 06:45:08;;;;;;;8.55;7.55;;;;;;;;;;4935254;28;20331;-49
2023/08/20 06:47:35;;;;;;;14.40;8.07;;;;;;;;;;4949657;29;20231;-49
2023/08/20 06:50:02;;;;;;;14.82;8.50;;;;;;;;;;4954213;28;20761;-50
2023/08/20 06:52:30;;;;;;;12.02;8.43;;;;;;;;;;4954447;28;20231;-52
2023/08/20 06:54:57;;;;;;;9.65;8.10;;;;;;;;;;4954177;28;20231;-49
2023/08/20 06:57:25;;;;;;;11.68;8.05;;;;;;;;;;4954647;28;20228;-49
2023/08/20 06:59:52;;;;;;;12.90;8.57;;;;;;;;;;4954435;28;20227;-49
2023/08/20 07:02:19;;;;;;;15.88;8.48;;;;;;;;;;4952768;28;20219;-48
2023/08/20 07:04:46;;;;;;;10.13;7.60;;;;;;;;;;4941197;28;20697;-48
2023/08/20 07:07:14;;;;;;;10.45;7.75;;;;;;;;;;4933271;29;20232;-48
2023/08/20 07:09:41;;;;;;;16.13;8.40;;;;;;;;;;4935103;28;20291;-50
2023/08/20 07:12:09;;;;;;;10.27;8.50;;;;;;;;;;4935530;29;20228;-49
2023/08/20 07:14:36;;;;;;;11.65;7.55;;;;;;;;;;4951781;28;20330;-48
2023/08/20 07:17:05;;;;;;;12.43;7.93;;;;;;;;;;4950784;29;20235;-52
2023/08/20 07:19:32;;;;;;;10.80;7.90;;;;;;;;;;4948346;28;20231;-49
2023/08/20 07:21:59;;;;;;;10.23;8.00;;;;;;;;;;4945990;28;20606;-55
2023/08/20 07:24:27;;;;;;;10.50;7.63;;;;;;;;;;4951996;28;20251;-54
2023/08/20 07:27:00;;;;;;;10.65;7.82;;;;;;;;;;4953580;28;20247;-55
2023/08/20 07:29:29;;;;;;;10.18;7.57;;;;;;;;;;4954021;28;20235;-55
2023/08/20 07:31:57;;;;;;;9.98;7.68;;;;;;;;;;4951678;28;20290;-52
2023/08/20 07:34:24;;;;;;;11.02;8.10;;;;;;;;;;4955408;29;20239;-53
2023/08/20 07:36:51;;;;;;;9.38;7.70;;;;;;;;;;4957477;28;20668;-52
2023/08/20 07:39:18;;;;;;;12.02;8.55;;;;;;;;;;4957691;28;20239;-56
2023/08/20 07:41:46;;;;;;;10.77;7.93;;;;;;;;;;4957348;28;20243;-57
2023/08/20 07:44:13;;;;;;;10.40;8.45;;;;;;;;;;4957013;28;20250;-56
2023/08/20 07:46:41;;;;;;;10.00;8.15;;;;;;;;;;4956169;28;20766;-58
2023/08/20 07:49:08;;;;;;;11.10;7.65;;;;;;;;;;4956503;29;20239;-55
2023/08/20 07:51:35;;;;;;;10.68;8.15;;;;;;;;;;4956890;28;20232;-54
2023/08/20 07:54:02;;;;;;;14.55;8.07;;;;;;;;;;4957005;28;20248;-57
2023/08/20 07:56:30;;;;;;;8.98;7.50;;;;;;;;;;4957142;28;20287;-56
2023/08/20 07:58:57;;;;;;;16.35;8.55;;;;;;;;;;4956676;28;20247;-54
2023/08/20 08:01:24;;;;;;;10.88;7.68;;;;;;;;;;4956060;28;20231;-53
2023/08/20 08:03:51;;;;;;;13.77;8.80;;;;;;;;;;4955050;28;20582;-56
2023/08/20 08:06:18;;;;;;;9.80;7.90;;;;;;;;;;4939755;28;20716;-56
2023/08/20 08:08:46;;;;;;;10.63;8.32;;;;;;;;;;4946483;29;20286;-53
2023/08/20 08:11:14;;;;;;;10.27;7.32;;;;;;;;;;4947657;28;20231;-52
2023/08/20 08:13:41;;;;;;;10.55;7.85;;;;;;;;;;4945663;29;20223;-51
2023/08/20 08:16:08;;;;;;;11.13;7.90;;;;;;;;;;4956351;28;20723;-56
2023/08/20 08:18:35;;;;;;;10.15;7.53;;;;;;;;;;4955603;28;20275;-55
2023/08/20 08:21:03;;;;;;;12.90;7.40;;;;;;;;;;4955912;28;20714;-52
2023/08/20 08:23:30;;;;;;;8.10;7.22;;;;;;;;;;4956111;28;20696;-53
2023/08/20 08:25:57;;;;;;;8.10;7.18;;;;;;;;;;4954731;28;20235;-55
2023/08/20 08:28:24;;;;;;;9.07;7.88;;;;;;;;;;4955700;29;20239;-55
2023/08/20 08:30:51;;;;;;;12.07;7.50;;;;;;;;;;4955912;28;20372;-52
2023/08/20 08:33:18;;;;;;;18.05;8.57;;;;;;;;;;4955989;28;20247;-48
2023/08/20 08:35:46;;;;;;;9.15;7.28;;;;;;;;;;4956824;28;20689;-47
2023/08/20 08:38:13;;;;;;;14.93;7.70;;;;;;;;;;4955141;29;20286;-48
2023/08/20 08:40:40;;;;;;;10.15;7.28;;;;;;;;;;4956300;28;20224;-48
2023/08/20 08:43:10;;;;;;;9.50;7.50;;;;;;;;;;4955262;28;20236;-48
2023/08/20 08:45:37;;;;;;;10.68;8.00;;;;;;;;;;4947167;28;20250;-47
2023/08/20 08:48:04;;;;;;;10.32;7.57;;;;;;;;;;4955645;28;20234;-48
2023/08/20 08:50:32;;;;;;;9.65;7.43;;;;;;;;;;4956434;28;20234;-49
2023/08/20 08:52:59;;;;;;;9.52;7.32;;;;;;;;;;4954407;29;20666;-55
2023/08/20 08:55:28;;;;;;;8.82;7.28;;;;;;;;;;4947337;29;20231;-49
2023/08/20 08:57:56;;;;;;;11.75;7.45;;;;;;;;;;4955630;28;20227;-50
2023/08/20 09:00:23;;;;;;;11.43;7.82;;;;;;;;;;4955584;28;20232;-52
2023/08/20 09:02:50;;;;;;;10.25;7.80;;;;;;;;;;4948510;28;20226;-50
2023/08/20 09:05:18;;;;;;;10.52;8.30;;;;;;;;;;4954148;29;20361;-48
2023/08/20 09:07:45;;;;;;;11.43;7.60;;;;;;;;;;4955401;28;20227;-50
2023/08/20 09:10:12;;;;;;;10.90;7.38;;;;;;;;;;4955349;28;20252;-48
2023/08/20 09:12:39;;;;;;;10.57;7.97;;;;;;;;;;4955444;28;20724;-50
2023/08/20 09:15:11;;;;;;;9.63;7.28;;;;;;;;;;4954794;28;20747;-49
2023/08/20 09:17:41;;;;;;;11.73;6.70;;;;;;;;;;4955130;28;20239;-47
2023/08/20 09:20:09;;;;;;;10.27;7.40;;;;;;;;;;4954509;28;20238;-48
2023/08/20 09:22:37;;;;;;;11.07;6.88;;;;;;;;;;4955354;28;20286;-48
2023/08/20 09:25:04;;;;;;;8.85;7.43;;;;;;;;;;4954563;28;20226;-49
2023/08/20 09:27:39;;;;;;;11.15;7.07;;;;;;;;;;4955184;28;20227;-47
2023/08/20 09:30:07;;;;;;;10.75;7.45;;;;;;;;;;4955017;28;20235;-50
2023/08/20 09:32:34;;;;;;;10.80;7.45;;;;;;;;;;4936547;28;20311;-50
2023/08/20 09:35:01;;;;;;;8.10;6.45;;;;;;;;;;4936462;29;20224;-48
2023/08/20 09:37:28;;;;;;;8.80;6.47;;;;;;;;;;4939203;29;20587;-51
2023/08/20 09:39:55;;;;;;;12.38;6.57;;;;;;;;;;4956155;28;20214;-50
2023/08/20 09:42:23;;;;;;;12.23;6.72;;;;;;;;;;4955923;29;20266;-51
2023/08/20 09:44:52;;;;;;;10.60;6.15;;;;;;;;;;4953418;28;20210;-50
2023/08/20 09:47:21;;;;;;;9.30;6.88;;;;;;;;;;4954636;29;20215;-50
2023/08/20 09:49:48;;;;;;;8.80;6.03;;;;;;;;;;4954377;29;20235;-49
2023/08/20 09:52:38;;;;;;;8.75;5.97;;;;;;;;;;4953997;28;20214;-50
2023/08/20 09:55:11;;;;;;;9.93;5.93;;;;;;;;;;4953532;28;20204;-49
2023/08/20 09:57:39;;;;;;;8.02;5.78;;;;;;;;;;4953100;28;20203;-49
2023/08/20 10:00:11;;;;;;;5.90;5.30;;;;;;;;;;4954998;28;20561;-50
2023/08/20 10:02:40;;;;;;;6.88;5.68;;;;;;;;;;4955060;28;20207;-49
2023/08/20 10:05:12;;;;;;;7.47;5.93;;;;;;;;;;4955364;28;20298;-49
2023/08/20 10:07:39;;;;;;;6.38;5.50;;;;;;;;;;4955771;28;20215;-49
2023/08/20 10:10:08;;;;;;;6.95;5.50;;;;;;;;;;4955539;28;20261;-49
2023/08/20 10:12:36;;;;;;;9.80;5.95;;;;;;;;;;4955396;28;20218;-49
2023/08/20 10:15:04;;;;;;;10.02;5.70;;;;;;;;;;4955671;28;20211;-49
2023/08/20 10:17:32;;;;;;;6.80;6.05;;;;;;;;;;4954473;29;20207;-49
2023/08/20 10:20:04;;;;;;;7.18;6.35;;;;;;;;;;4955334;28;20212;-50
2023/08/20 10:22:41;;;;;;;9.75;6.85;;;;;;;;;;4955642;28;20637;-49
2023/08/20 10:25:22;;;;;;;9.05;6.45;;;;;;;;;;4955308;29;20263;-50
2023/08/20 10:27:49;;;;;;;8.13;6.28;;;;;;;;;;4955312;28;20656;-51
2023/08/20 10:30:18;;;;;;;7.78;6.25;;;;;;;;;;4955160;28;20238;-49
2023/08/20 10:32:50;;;;;;;10.50;6.88;;;;;;;;;;4955693;28;20211;-49
2023/08/20 10:35:23;;;;;;;8.50;6.22;;;;;;;;;;4955361;28;20207;-49
2023/08/20 10:38:02;;;;;;;8.07;6.35;;;;;;;;;;4954411;29;20243;-49
2023/08/20 10:40:55;;;;;;;7.97;6.30;;;;;;;;;;4955190;28;20668;-50
2023/08/20 10:43:25;;;;;;;7.68;6.30;;;;;;;;;;4955352;28;20332;-49
2023/08/20 10:46:23;;;;;;;11.63;6.60;;;;;;;;;;4955499;28;20214;-50
2023/08/20 10:48:59;;;;;;;10.55;6.75;;;;;;;;;;4955443;28;20231;-50
2023/08/20 10:51:30;;;;;;;9.23;5.97;;;;;;;;;;4955729;28;20195;-51
2023/08/20 10:54:00;;;;;;;7.70;6.13;;;;;;;;;;4955441;28;20207;-49
2023/08/20 10:56:37;;;;;;;7.90;6.00;;;;;;;;;;4955032;28;20255;-50
2023/08/20 10:59:15;;;;;;;7.88;5.72;;;;;;;;;;4954986;28;20235;-50
2023/08/20 11:01:44;;;;;;;8.25;6.22;;;;;;;;;;4955413;28;20195;-51
2023/08/20 11:04:13;;;;;;;9.45;6.45;;;;;;;;;;4947910;28;20267;-47
2023/08/20 11:06:41;;;;;;;7.55;6.10;;;;;;;;;;4952351;28;20232;-53
2023/08/20 11:09:08;;;;;;;10.95;6.60;;;;;;;;;;4956318;29;20641;-50
2023/08/20 11:11:35;;;;;;;7.70;6.00;;;;;;;;;;4958030;28;20235;-50
2023/08/20 11:14:09;;;;;;;7.90;5.95;;;;;;;;;;4958007;28;20235;-49
2023/08/20 11:16:37;;;;;;;6.95;5.90;;;;;;;;;;4957902;28;20286;-51
2023/08/20 11:19:08;;;;;;;7.45;5.95;;;;;;;;;;4957517;28;20231;-50
2023/08/20 11:21:37;;;;;;;10.20;6.20;;;;;;;;;;4957941;29;20340;-50
2023/08/20 11:24:06;;;;;;;9.43;6.00;;;;;;;;;;4957782;28;20239;-51
2023/08/20 11:26:35;;;;;;;7.53;5.82;;;;;;;;;;4956029;28;20693;-52
2023/08/20 11:29:10;;;;;;;8.02;6.25;;;;;;;;;;4951529;28;20279;-49
2023/08/20 11:31:38;;;;;;;10.50;5.75;;;;;;;;;;4957778;28;20215;-51
2023/08/20 11:34:05;;;;;;;7.80;5.32;;;;;;;;;;4957277;28;20227;-51
2023/08/20 11:36:33;;;;;;;7.50;5.03;;;;;;;;;;4957568;28;20228;-58
2023/08/20 11:39:00;;;;;;;5.90;4.65;;;;;;;;;;4957636;28;20242;-51
2023/08/20 11:41:27;;;;;;;6.45;4.90;;;;;;;;;;4957735;28;20238;-49
2023/08/20 11:43:55;;;;;;;5.97;5.38;;;;;;;;;;4957553;28;20231;-48
2023/08/20 11:46:23;;;;;;;7.47;5.55;;;;;;;;;;4957452;28;20600;-50
2023/08/20 11:49:08;;;;;;;8.43;5.90;;;;;;;;;;4956561;28;20231;-52
2023/08/20 11:51:37;;;;;;;8.20;5.25;;;;;;;;;;4956143;28;20249;-49
2023/08/20 11:54:11;;;;;;;10.32;5.78;;;;;;;;;;4957362;28;20227;-50
2023/08/20 11:56:48;;;;;;;7.75;5.95;;;;;;;;;;4957184;28;20222;-49
2023/08/20 11:59:17;;;;;;;7.65;5.65;;;;;;;;;;4957473;28;20341;-50
2023/08/20 12:01:51;;;;;;;10.25;6.13;;;;;;;;;;4957052;28;20235;-49
2023/08/20 12:04:18;;;;;;;7.60;5.90;;;;;;;;;;4957115;28;20581;-47
2023/08/20 12:07:05;;;;;;;11.40;6.35;;;;;;;;;;4956039;29;20696;-51
2023/08/20 12:09:32;;;;;;;10.27;6.20;;;;;;;;;;4937947;28;20232;-49
2023/08/20 12:12:00;;;;;;;9.02;5.82;;;;;;;;;;4937703;29;20224;-48
2023/08/20 12:14:27;;;;;;;9.10;6.10;;;;;;;;;;4937785;28;20629;-49
2023/08/20 12:16:55;;;;;;;6.05;5.43;;;;;;;;;;4937461;29;20224;-53
2023/08/20 12:19:23;;;;;;;7.78;5.95;;;;;;;;;;4937337;28;20244;-48
2023/08/20 12:21:50;;;;;;;7.93;6.07;;;;;;;;;;4937446;29;20240;-48
2023/08/20 12:24:19;;;;;;;9.85;6.25;;;;;;;;;;4937467;28;20238;-48
2023/08/20 12:26:46;;;;;;;9.90;6.07;;;;;;;;;;4937896;29;20227;-48
2023/08/20 12:29:13;;;;;;;6.90;6.20;;;;;;;;;;4944265;28;20239;-48
2023/08/20 12:31:41;;;;;;;6.88;5.38;;;;;;;;;;4955004;29;20724;-48
2023/08/20 12:34:09;;;;;;;8.43;6.40;;;;;;;;;;4956559;28;20231;-48
2023/08/20 12:36:36;;;;;;;6.40;5.57;;;;;;;;;;4956391;28;20227;-48
2023/08/20 12:39:04;;;;;;;6.40;5.53;;;;;;;;;;4956538;28;20246;-47
2023/08/20 12:41:32;;;;;;;6.50;5.15;;;;;;;;;;4954333;28;20751;-48
2023/08/20 12:43:59;;;;;;;6.72;5.45;;;;;;;;;;4945685;28;20228;-49
2023/08/20 12:46:26;;;;;;;7.07;5.20;;;;;;;;;;4937462;29;20224;-48
2023/08/20 12:48:54;;;;;;;8.05;6.00;;;;;;;;;;4938781;29;20393;-50
2023/08/20 12:51:21;;;;;;;6.28;5.38;;;;;;;;;;4950547;28;20306;-48
2023/08/20 12:53:48;;;;;;;7.47;6.05;;;;;;;;;;4947957;28;20252;-49
2023/08/20 12:56:16;;;;;;;8.27;6.18;;;;;;;;;;4951151;28;20235;-48
2023/08/20 12:58:43;;;;;;;7.50;5.78;;;;;;;;;;4955566;28;20223;-48
2023/08/20 13:01:11;;;;;;;6.93;6.15;;;;;;;;;;4953215;28;20227;-51
2023/08/20 13:03:38;;;;;;;11.95;5.57;;;;;;;;;;4955262;29;20223;-45
2023/08/20 13:06:06;;;;;;;10.15;6.15;;;;;;;;;;4956167;28;20223;-46
2023/08/20 13:08:34;;;;;;;7.32;6.22;;;;;;;;;;4986829;28;20231;-46
2023/08/20 13:11:02;;;;;;;9.00;6.03;;;;;;;;;;4973623;28;20243;-46
2023/08/20 13:13:33;;;;;;;10.27;5.93;;;;;;;;;;4935626;29;20259;-48
2023/08/20 13:16:01;;;;;;;9.23;5.80;;;;;;;;;;4937113;28;20579;-49
2023/08/20 13:18:28;;;;;;;6.32;5.72;;;;;;;;;;4936667;29;20224;-51
2023/08/20 13:20:55;;;;;;;7.57;5.82;;;;;;;;;;4936660;28;20231;-49
2023/08/20 13:23:23;;;;;;;10.38;5.45;;;;;;;;;;4936889;29;20250;-49
2023/08/20 13:25:51;;;;;;;8.48;6.28;;;;;;;;;;4938781;28;20700;-50
2023/08/20 13:28:18;;;;;;;7.82;6.05;;;;;;;;;;4955749;29;20239;-50
2023/08/20 13:30:45;;;;;;;7.88;6.20;;;;;;;;;;4954712;28;20236;-48
2023/08/20 13:33:13;;;;;;;6.72;5.40;;;;;;;;;;4955466;29;20587;-48
2023/08/20 13:35:41;;;;;;;7.38;5.45;;;;;;;;;;4955434;28;20227;-50
2023/08/20 13:38:09;;;;;;;7.57;5.75;;;;;;;;;;4955550;28;20239;-49
2023/08/20 13:40:36;;;;;;;8.15;5.57;;;;;;;;;;4954921;28;20223;-50
2023/08/20 13:43:03;;;;;;;11.40;5.80;;;;;;;;;;4955084;28;20704;-49
2023/08/20 13:45:31;;;;;;;6.97;5.57;;;;;;;;;;4955427;28;20238;-49
2023/08/20 13:47:58;;;;;;;7.40;5.25;;;;;;;;;;4953565;28;20219;-49
2023/08/20 13:50:26;;;;;;;6.85;5.97;;;;;;;;;;4953746;28;20598;-49
2023/08/20 13:52:53;;;;;;;7.22;5.85;;;;;;;;;;4954812;29;20259;-48
2023/08/20 13:55:21;;;;;;;7.70;5.78;;;;;;;;;;4955215;28;20579;-50
2023/08/20 13:57:48;;;;;;;7.60;5.72;;;;;;;;;;4954191;29;20309;-50
2023/08/20 14:00:16;;;;;;;6.30;5.40;;;;;;;;;;4952074;28;20216;-48
2023/08/20 14:02:43;;;;;;;7.18;5.35;;;;;;;;;;4954197;28;20722;-49
2023/08/20 14:05:10;;;;;;;5.70;5.10;;;;;;;;;;4954680;28;20219;-48
2023/08/20 14:07:38;;;;;;;8.35;5.93;;;;;;;;;;4963482;28;20222;-49
2023/08/20 14:10:06;;;;;;;6.70;5.65;;;;;;;;;;4955175;28;20231;-49
2023/08/20 14:12:33;;;;;;;7.15;5.85;;;;;;;;;;4936240;29;20228;-50
2023/08/20 14:15:05;;;;;;;5.97;5.38;;;;;;;;;;4955496;28;20199;-50
2023/08/20 14:17:32;;;;;;;9.45;5.68;;;;;;;;;;4955631;28;20290;-50
2023/08/20 14:19:59;;;;;;;7.15;5.88;;;;;;;;;;4955611;28;20211;-52
2023/08/20 14:22:26;;;;;;;10.80;5.13;;;;;;;;;;4953436;28;20305;-52
2023/08/20 14:24:53;;;;;;;5.60;5.03;;;;;;;;;;4950279;28;20207;-49
2023/08/20 14:27:22;;;;;;;7.05;5.20;;;;;;;;;;4954275;28;20203;-54
2023/08/20 14:29:49;;;;;;;6.85;5.40;;;;;;;;;;4953348;28;20688;-50
2023/08/20 14:32:16;;;;;;;7.40;5.72;;;;;;;;;;4954049;28;20270;-52
2023/08/20 14:34:44;;;;;;;7.93;5.28;;;;;;;;;;4954015;28;20267;-50
2023/08/20 14:37:13;;;;;;;6.90;5.45;;;;;;;;;;4954356;28;20207;-50
2023/08/20 14:39:40;;;;;;;7.57;4.75;;;;;;;;;;4954902;28;20207;-49
2023/08/20 14:42:08;;;;;;;7.10;5.43;;;;;;;;;;4956775;28;20665;-52